Canefield Airport

Fair
26oC (79oF)

Fair


Winds: South westerly @ 01Kts / 02km/h

Humidity: 68%

Barometric Pressure: 1012 mb

Accumulated Rainfall for December: 3.8 mm

Updated: 8:00 local time (12:00 UTC)

Douglas-Charles Airport

Cloudy with adjacent showers
24oC (75oF)

Cloudy with adjacent showers


Winds: Westerly @ 05kts / 09km/h

Humidity: 95%

Barometric Pressure: 1013 mb

Accumulated Rainfall for December: 2.2 mm

Updated: 8:00 local time (12:00 UTC)

Satellite Imagery

Satellite Imagery
Click image for larger view. (Source: National Hurricane Center).

Aviation Routine Report (METAR)

Douglas-Charles: METAR TDPD 091200Z 28005KT 9999 BKN018 24/23 Q1013=
Canefield: METAR TDCF 081200Z 22001KT 9999 FEW019 26/19 Q1013=